Latest Weather Observations for Kanagulk

IDV60801

Issued at 6:31 am EDT Thursday 18 December 2014 (issued every 30 minutes, with the page automatically refreshed every 10 minutes)

About weather observations | Map of weather stations | Latest weather observations for VIC | Other Formats
Station Details ID: 079097 Name: KANAGULK Lat: -37.12 Lon: 141.80 Height: 188.8 m
Data from the previous 72 hours. | See also: Recent months at Kanagulk
Date/Time
EDT
Temp
°C
App
Temp
°C
Dew
Point
Rel
Hum
%
Delta-T
°C
Wind Press
QNH
hPa
Press
MSL
hPa
Rain
since 9 am
mm
Dir
 
Spd
km/h
Gust
km/h
Spd
kts
Gust
kts
18/06:30am 6.2 4.6 2.7 78 1.5 CALM 0 0 0 0 1006.9 1006.4 0.0
18/06:00am 7.4 6.0 3.8 78 1.6 CALM 0 0 0 0 1006.6 1006.1 0.0
18/05:30am 7.1 5.4 4.1 81 1.3 WNW 2 7 1 4 1006.4 1005.9 0.0
18/05:00am 6.9 4.8 4.0 82 1.3 WNW 4 9 2 5 1006.2 1005.7 0.0
18/04:30am 6.7 5.0 2.0 72 1.9 CALM 0 0 0 0 1005.8 1005.3 0.0
18/04:00am 8.6 7.2 3.6 71 2.2 CALM 0 0 0 0 1005.9 1005.4 0.0
18/03:30am 9.3 7.9 3.7 68 2.5 CALM 0 0 0 0 1006.2 1005.7 0.0
18/03:00am 9.5 7.4 3.9 68 2.5 WSW 4 7 2 4 1006.7 1006.2 0.0
18/02:30am 10.0 7.7 4.8 70 2.4 W 6 9 3 5 1007.0 1006.5 0.0
18/02:00am 10.7 8.4 5.5 70 2.4 SW 7 9 4 5 1006.8 1006.3 0.0
18/01:30am 11.5 9.2 5.6 67 2.8 SSW 7 9 4 5 1007.0 1006.5 0.0
18/01:00am 11.7 9.3 5.1 64 3.1 SSW 7 9 4 5 1007.2 1006.7 0.0
18/12:30am 12.0 9.4 4.2 59 3.6 SSW 7 9 4 5 1007.4 1006.9 0.0
18/12:00am 12.7 10.3 4.2 56 3.9 S 6 9 3 5 1007.4 1006.9 0.0
 
Date/Time
EDT
Temp
°C
App
Temp
°C
Dew
Point
Rel
Hum
%
Delta-T
°C
Wind Press
QNH
hPa
Press
MSL
hPa
Rain
since 9 am
mm
Dir
 
Spd
km/h
Gust
km/h
Spd
kts
Gust
kts
17/11:30pm 13.7 10.7 4.0 52 4.5 SSW 9 13 5 7 1007.5 1007.0 0.0
17/11:00pm 14.7 11.3 3.8 48 5.0 SSW 11 15 6 8 1007.8 1007.2 0.0
17/10:30pm 15.3 12.2 3.5 45 5.4 SSW 9 15 5 8 1007.9 1007.3 0.0
17/10:00pm 15.9 12.3 3.0 42 5.9 SW 11 17 6 9 1007.8 1007.2 0.0
17/09:30pm 16.2 12.8 1.9 38 6.4 SW 9 15 5 8 1007.7 1007.1 0.0
17/09:00pm 17.5 14.0 1.5 34 7.2 WSW 9 15 5 8 1007.5 1007.0 0.0
17/08:30pm 19.7 15.8 1.2 29 8.4 WNW 11 20 6 11 1007.4 1006.9 0.0
17/08:00pm 20.8 16.9 1.1 27 9.1 WNW 11 19 6 10 1006.9 1006.4 0.0
17/07:30pm 21.7 17.7 0.3 24 9.7 NW 11 20 6 11 1006.7 1006.2 0.0
17/07:00pm 22.2 17.4 0.1 23 10.1 WNW 15 24 8 13 1006.3 1005.8 0.0
17/06:30pm 22.4 18.1 0.9 24 10.0 W 13 20 7 11 1006.4 1005.9 0.0
17/06:00pm 22.9 18.7 1.8 25 10.0 WSW 13 24 7 13 1006.5 1006.0 0.0
17/05:30pm 23.6 19.5 2.4 25 10.2 W 13 26 7 14 1006.8 1006.3 0.0
17/05:00pm 22.4 18.3 2.0 26 9.7 WSW 13 26 7 14 1007.0 1006.5 0.0
17/04:30pm 22.8 19.0 1.8 25 9.9 WNW 11 19 6 10 1007.1 1006.6 0.0
17/04:00pm 22.6 17.5 1.0 24 10.1 NW 17 26 9 14 1007.3 1006.8 0.0
17/03:30pm 21.5 16.2 1.7 27 9.2 SW 19 28 10 15 1007.4 1006.9 0.0
17/03:00pm 22.5 18.4 2.1 26 9.7 W 13 26 7 14 1007.9 1007.3 0.0
17/02:30pm 21.7 17.2 1.9 27 9.3 WSW 15 41 8 22 1008.3 1007.7 0.0
17/02:00pm 20.3 16.2 2.2 30 8.5 W 13 20 7 11 1008.7 1008.2 0.0
17/01:30pm 19.9 15.4 2.3 31 8.2 W 15 26 8 14 1008.9 1008.4 0.0
17/01:00pm 20.1 16.1 2.9 32 8.1 WSW 13 24 7 13 1009.2 1008.7 0.0
17/12:30pm 19.9 15.7 1.8 30 8.4 WNW 13 28 7 15 1009.6 1009.1 0.0
17/12:00pm 18.5 14.4 2.4 34 7.5 WNW 13 28 7 15 1009.6 1009.1 0.0
17/11:30am 18.0 14.0 2.7 36 7.1 W 13 30 7 16 1009.7 1009.2 0.0
17/11:00am 17.5 14.0 3.4 39 6.6 W 11 22 6 12 1010.0 1009.5 0.0
17/10:30am 16.1 12.2 3.2 42 5.9 SW 13 22 7 12 1010.3 1009.8 0.0
17/10:00am 16.3 12.6 4.7 46 5.5 SW 13 26 7 14 1010.4 1009.9 0.0
17/09:30am 14.3 11.8 4.9 53 4.4 WNW 7 15 4 8 1010.6 1010.1 0.0
17/09:00am 14.5 12.1 6.8 60 3.8 WNW 9 13 5 7 1010.7 1010.2 0.0
17/08:30am 13.1 11.0 6.5 64 3.2 W 7 11 4 6 1010.6 1010.1 0.0
17/08:00am 10.9 8.4 6.6 75 2.1 W 9 15 5 8 1010.3 1009.8 0.0
17/07:30am 9.7 7.9 8.1 90 0.8 WNW 7 11 4 6 1010.1 1009.6 0.0
17/07:00am 7.6 5.8 7.2 97 0.2 WNW 6 9 3 5 1009.6 1009.1 0.0
17/06:30am 5.6 4.5 4.9 95 0.3 CALM 0 0 0 0 1009.1 1008.6 0.0
17/06:00am 6.2 4.0 5.5 95 0.3 NW 6 7 3 4 1008.7 1008.2 0.0
17/05:30am 6.0 4.9 5.0 93 0.4 CALM 0 0 0 0 1008.3 1007.7 0.0
17/05:00am 6.7 4.6 5.7 93 0.5 WNW 6 7 3 4 1007.9 1007.3 0.0
17/04:30am 7.2 5.1 6.0 92 0.5 W 6 9 3 5 1007.7 1007.1 0.0
17/04:00am 7.2 5.4 5.5 89 0.8 W 4 7 2 4 1007.5 1007.0 0.0
17/03:30am 7.5 6.1 5.3 86 1.0 W 2 7 1 4 1007.4 1006.9 0.0
17/03:00am 8.0 5.7 5.5 84 1.1 W 7 9 4 5 1007.4 1006.9 0.0
17/02:30am 7.8 5.6 5.1 83 1.2 WNW 6 9 3 5 1007.7 1007.1 0.0
17/02:00am 8.2 7.1 5.1 81 1.4 CALM 0 0 0 0 1007.7 1007.1 0.0
17/01:30am 8.7 7.6 5.3 79 1.5 CALM 0 7 0 4 1007.9 1007.3 0.0
17/01:00am 8.7 6.4 4.7 76 1.8 WSW 6 9 3 5 1007.8 1007.2 0.0
17/12:30am 9.4 7.1 4.6 72 2.2 WSW 6 11 3 6 1007.7 1007.1 0.0
17/12:00am 10.2 7.7 4.8 69 2.5 WSW 7 13 4 7 1007.7 1007.1 0.0
 
Date/Time
EDT
Temp
°C
App
Temp
°C
Dew
Point
Rel
Hum
%
Delta-T
°C
Wind Press
QNH
hPa
Press
MSL
hPa
Rain
since 9 am
mm
Dir
 
Spd
km/h
Gust
km/h
Spd
kts
Gust
kts
16/11:30pm 11.0 7.4 4.9 66 2.8 SW 13 22 7 12 1007.4 1006.9 0.0
16/11:00pm 11.6 8.8 5.3 65 2.9 WSW 9 20 5 11 1007.2 1006.7 0.0
16/10:30pm 12.3 7.9 4.8 60 3.5 SW 17 32 9 17 1007.1 1006.6 0.0
16/10:00pm 13.1 8.3 4.8 57 3.9 SW 19 30 10 16 1006.7 1006.2 0.0
16/09:30pm 13.6 8.1 3.9 52 4.4 SW 22 39 12 21 1006.1 1005.6 0.0
16/09:00pm 14.1 8.1 3.3 48 4.9 SW 24 37 13 20 1005.5 1005.0 0.0
16/08:30pm 14.8 8.7 2.7 44 5.5 WSW 24 41 13 22 1005.0 1004.5 0.0
16/08:00pm 15.9 9.3 2.3 40 6.2 WSW 26 41 14 22 1004.5 1004.0 0.0
16/07:35pm 16.9 9.5 3.9 42 6.1 SW 32 52 17 28 1004.1 1003.6 0.0
16/07:30pm 17.1 10.2 4.8 44 5.9 SW 30 41 16 22 1003.9 1003.3 0.0
16/07:07pm 17.5 10.4 3.4 39 6.6 SW 30 50 16 27 1003.4 1002.8 0.0
16/07:00pm 17.7 11.1 4.3 41 6.4 WSW 28 43 15 23 1003.2 1002.6 0.0
16/06:33pm 18.2 11.2 2.1 34 7.4 WSW 28 59 15 32 1002.4 1001.8 0.0
16/06:30pm 18.5 11.6 2.8 35 7.3 WSW 28 44 15 24 1002.4 1001.8 0.0
16/06:03pm 20.1 12.4 2.5 31 8.3 WSW 32 52 17 28 1001.7 1001.2 0.0
16/06:00pm 19.8 12.1 2.2 31 8.2 WSW 32 46 17 25 1001.7 1001.2 0.0
16/05:30pm 19.4 12.1 2.7 33 7.8 WSW 30 48 16 26 1001.1 1000.6 0.0
16/05:13pm 19.2 12.7 4.6 38 7.1 W 28 52 15 28 1001.1 1000.6 0.0
16/05:00pm 20.0 14.6 4.5 36 7.6 W 22 41 12 22 1001.1 1000.6 0.0
16/04:30pm 18.5 10.2 4.3 39 6.8 WSW 37 63 20 34 1001.0 1000.5 0.0
16/04:00pm 18.7 10.9 6.5 45 6.2 WSW 37 56 20 30 1000.2 999.7 0.0
16/03:30pm 19.0 12.4 8.4 50 5.5 W 33 52 18 28 999.8 999.3 0.0
16/03:24pm 19.6 14.0 8.9 50 5.7 W 28 50 15 27 999.9 999.4 0.0
16/03:00pm 16.7 12.8 9.6 63 3.8 W 20 33 11 18 1000.3 999.8 0.0
16/02:30pm 15.5 10.7 10.3 71 2.8 W 26 50 14 27 999.9 999.4 0.0
16/02:15pm 17.3 10.4 10.2 63 3.8 W 37 76 20 41 999.6 999.1 0.0
16/02:10pm 19.2 12.3 10.2 56 4.9 WNW 37 76 20 41 999.0 998.4 0.0
16/02:00pm 22.1 15.6 8.2 41 7.4 WNW 32 50 17 27 998.1 997.5 0.0
16/01:36pm 22.7 16.8 7.3 37 8.1 WNW 28 48 15 26 997.6 997.0 0.0
16/01:30pm 23.2 18.0 7.3 36 8.3 WNW 24 48 13 26 997.5 996.9 0.0
16/01:10pm 23.7 17.8 7.3 35 8.6 WNW 28 56 15 30 997.5 996.9 0.0
16/01:00pm 22.5 17.6 7.1 37 8.1 WNW 22 35 12 19 997.6 997.0 0.0
16/12:30pm 22.7 17.0 6.5 35 8.4 W 26 43 14 23 997.9 997.3 0.0
16/12:00pm 22.2 17.3 6.8 37 8.0 WNW 22 35 12 19 998.0 997.4 0.0
16/11:30am 21.1 16.1 6.6 39 7.4 WNW 22 37 12 20 998.4 997.8 0.0
16/11:00am 21.5 16.8 7.7 41 7.3 WNW 22 43 12 23 998.9 998.3 0.0
16/10:30am 20.8 17.3 7.4 42 6.9 WNW 15 26 8 14 998.4 997.8 0.0
16/10:00am 20.2 16.9 7.9 45 6.5 W 15 28 8 15 999.1 998.5 0.0
16/09:30am 17.6 15.7 10.5 63 3.8 WNW 11 17 6 9 999.7 999.2 0.0
16/09:00am 14.4 12.9 14.2 99 0.1 WNW 15 20 8 11 1000.0 999.5 0.0
16/08:30am 11.9 10.8 11.9 100 0.0 WNW 9 17 5 9 999.9 999.4 0.0
16/08:00am 10.6 9.4 10.4 99 0.1 N 7 13 4 7 998.3 997.7 0.0
16/07:30am 9.8 9.0 9.7 99 0.1 N 4 7 2 4 998.6 998.0 0.0
16/07:00am 9.8 8.6 9.7 99 0.1 NE 6 9 3 5 997.8 997.2 0.0
16/06:30am 9.8 9.8 9.7 99 0.1 CALM 0 0 0 0 998.5 997.9 0.0
16/06:00am 9.9 8.6 9.8 99 0.1 WSW 7 11 4 6 999.1 998.5 0.0
16/05:30am 9.4 8.1 9.3 99 0.0 W 6 9 3 5 998.9 998.3 0.0
16/05:00am 9.6 8.4 9.5 99 0.1 W 6 11 3 6 998.5 997.9 0.0
16/04:30am 9.6 9.1 9.5 99 0.1 W 2 7 1 4 998.3 997.7 0.0
16/04:00am 10.2 10.3 10.0 99 0.1 CALM 0 0 0 0 998.3 997.7 0.0
16/03:30am 10.4 10.1 10.2 99 0.1 WSW 2 6 1 3 998.4 997.8 0.0
16/03:00am 10.9 10.4 10.6 98 0.2 WSW 4 9 2 5 998.8 998.2 0.0
16/02:30am 11.1 10.1 10.3 95 0.4 S 6 7 3 4 999.1 998.5 0.0
16/02:00am 12.0 9.9 11.1 94 0.5 SSE 13 15 7 8 999.3 998.7 0.0
16/01:30am 12.5 11.1 10.9 90 0.8 S 9 15 5 8 999.9 999.4 0.0
16/01:00am 13.3 11.2 11.0 86 1.2 SSW 13 17 7 9 1000.1 999.6 0.0
16/12:30am 13.8 11.7 11.1 84 1.4 SSW 13 19 7 10 1000.9 1000.4 0.0
16/12:00am 14.2 12.0 10.8 80 1.8 SSW 13 20 7 11 1001.3 1000.8 0.0
 
Date/Time
EDT
Temp
°C
App
Temp
°C
Dew
Point
Rel
Hum
%
Delta-T
°C
Wind Press
QNH
hPa
Press
MSL
hPa
Rain
since 9 am
mm
Dir
 
Spd
km/h
Gust
km/h
Spd
kts
Gust
kts
15/11:30pm 14.9 12.0 10.9 77 2.1 S 17 28 9 15 1001.4 1000.9 0.0
15/11:00pm 15.4 11.8 10.6 73 2.6 S 20 28 11 15 1001.5 1001.0 0.0
15/10:30pm 16.3 12.7 10.6 69 3.1 S 20 32 11 17 1001.7 1001.2 0.0
15/10:00pm 16.9 13.5 10.5 66 3.5 S 19 24 10 13 1001.6 1001.1 0.0
15/09:30pm 18.4 14.0 10.5 60 4.3 S 24 32 13 17 1001.7 1001.2 0.0
15/09:00pm 21.5 17.2 10.6 50 6.0 S 24 33 13 18 1001.5 1001.0 0.0
15/08:30pm 23.7 19.2 10.0 42 7.6 SSE 24 30 13 16 1001.3 1000.8 0.0
15/08:00pm 27.3 23.6 0.1 17 12.9 SW 9 15 5 8 1001.1 1000.6 0.0
15/07:30pm 28.9 24.8 -0.3 15 13.9 SW 11 17 6 9 1001.2 1000.7 0.0
15/07:00pm 29.7 25.8 -1.6 13 14.7 SW 9 17 5 9 1001.1 1000.6 0.0
15/06:30pm 30.4 26.6 -1.1 13 14.9 WSW 9 17 5 9 1001.2 1000.7 0.0
15/06:00pm 30.3 26.3 -2.2 12 15.2 SW 9 15 5 8 1001.3 1000.8 0.0
15/05:30pm 31.6 28.1 -1.2 12 15.7 S 7 17 4 9 1001.6 1001.1 0.0
15/05:00pm 29.8 26.0 -0.5 14 14.5 W 9 17 5 9 1002.3 1001.7 0.0
15/04:30pm 30.2 26.9 -0.2 14 14.6 W 7 17 4 9 1002.7 1002.1 0.0
15/04:00pm 31.8 27.7 0.0 13 15.6 WNW 11 22 6 12 1002.9 1002.3 0.0
15/03:30pm 29.2 26.2 1.7 17 13.6 N 7 15 4 8 1003.3 1002.7 0.0
15/03:00pm 28.8 24.7 2.1 18 13.3 NNW 13 24 7 13 1003.9 1003.3 0.0
15/02:30pm 30.5 27.7 1.9 16 14.3 NW 6 15 3 8 1004.3 1003.8 0.0
15/02:00pm 28.4 24.7 0.2 16 13.5 SSW 9 17 5 9 1004.9 1004.4 0.0
15/01:30pm 27.5 24.6 2.6 20 12.3 SW 7 15 4 8 1005.5 1005.0 0.0
15/01:00pm 27.8 25.2 4.2 22 12.1 E 7 13 4 7 1006.0 1005.5 0.0
15/12:30pm 25.8 23.2 4.3 25 10.9 E 7 15 4 8 1006.5 1006.0 0.0
15/12:00pm 26.0 23.0 6.1 28 10.4 S 11 15 6 8 1006.9 1006.4 0.0
15/11:30am 23.6 21.7 7.7 36 8.4 ESE 7 13 4 7 1007.7 1007.1 0.0
15/11:00am 23.0 21.6 8.7 40 7.7 NNE 6 13 3 7 1007.9 1007.3 0.0
15/10:30am 21.8 20.6 10.3 48 6.3 S 7 13 4 7 1008.3 1007.7 0.0
15/10:00am 20.4 18.8 10.2 52 5.6 S 9 15 5 8 1008.6 1008.0 0.0
15/09:30am 19.0 17.5 10.6 58 4.6 S 9 15 5 8 1008.9 1008.4 0.0
15/09:00am 17.5 15.9 10.1 62 4.0 SSE 9 15 5 8 1009.1 1008.6 0.0
15/08:30am 16.4 14.1 10.5 68 3.2 SE 13 17 7 9 1009.1 1008.6 0.0
15/08:00am 15.2 12.6 10.6 74 2.5 SSE 15 19 8 10 1008.9 1008.4 0.0
15/07:30am 13.2 9.5 10.2 82 1.6 SSE 20 26 11 14 1008.7 1008.2 0.0
15/07:00am 12.2 8.7 10.1 87 1.1 SSE 19 24 10 13 1008.6 1008.0 0.0

Other Formats:

Comma delimited format used in spreadsheet applications
http://www.bom.gov.au/fwo/IDV60801/IDV60801.95827.axf

JavaScript Object Notation format (JSON) in row-major order
http://www.bom.gov.au/fwo/IDV60801/IDV60801.95827.json